createdAt,value
2018-12-22T00:00:27.683Z,1.40
2018-12-22T00:05:21.049Z,1.57
2018-12-22T00:10:14.443Z,1.43
2018-12-22T00:15:07.876Z,1.23
2018-12-22T00:20:01.261Z,1.27
2018-12-22T00:24:54.640Z,1.60
2018-12-22T00:29:48.288Z,1.20
2018-12-22T00:34:41.660Z,1.40
2018-12-22T00:39:35.053Z,1.67
2018-12-22T00:44:28.449Z,2.10
2018-12-22T00:49:21.833Z,2.10
2018-12-22T00:54:15.199Z,1.63
2018-12-22T00:59:08.629Z,1.97
2018-12-22T01:04:02.021Z,2.20
2018-12-22T01:08:55.426Z,2.03
2018-12-22T01:13:48.813Z,2.80
2018-12-22T01:18:42.224Z,2.50
2018-12-22T01:23:37.558Z,2.33
2018-12-22T01:28:39.191Z,2.50
2018-12-22T01:33:24.468Z,2.30
2018-12-22T01:38:17.822Z,2.40
2018-12-22T01:43:11.384Z,2.63
2018-12-22T01:48:04.849Z,2.20
2018-12-22T01:52:58.218Z,3.07
2018-12-22T01:57:51.604Z,2.50
2018-12-22T02:02:44.968Z,2.27
2018-12-22T02:07:38.356Z,2.33
2018-12-22T02:12:31.768Z,2.53
2018-12-22T02:17:25.151Z,2.17
2018-12-22T02:22:18.592Z,2.50
2018-12-22T02:27:12.793Z,2.03
2018-12-22T02:32:06.154Z,1.80
2018-12-22T02:37:03.026Z,1.97
2018-12-22T02:41:56.387Z,1.93
2018-12-22T02:46:49.746Z,2.10
2018-12-22T02:51:43.169Z,2.07
2018-12-22T02:56:36.533Z,1.90
2018-12-22T03:01:29.936Z,2.53
2018-12-22T03:06:23.325Z,2.17
2018-12-22T03:11:16.739Z,1.70
2018-12-22T03:16:10.136Z,1.97
2018-12-22T03:21:03.616Z,2.33
2018-12-22T03:25:56.996Z,1.93
2018-12-22T03:30:50.366Z,1.97
2018-12-22T03:35:43.737Z,1.77
2018-12-22T03:40:37.107Z,1.97
2018-12-22T03:45:32.004Z,1.60
2018-12-22T03:50:25.369Z,1.97
2018-12-22T03:55:18.816Z,1.70
2018-12-22T04:00:12.218Z,2.20
2018-12-22T04:05:06.091Z,2.20
2018-12-22T04:09:59.461Z,1.57
2018-12-22T04:14:52.864Z,1.97
2018-12-22T04:19:46.331Z,1.67
2018-12-22T04:24:39.763Z,1.43
2018-12-22T04:29:33.918Z,2.00
2018-12-22T04:34:26.521Z,2.03
2018-12-22T04:39:19.882Z,1.33
2018-12-22T04:44:13.242Z,1.47
2018-12-22T04:49:06.630Z,1.27
2018-12-22T04:54:00.070Z,1.50
2018-12-22T04:58:53.763Z,1.33
2018-12-22T05:03:47.125Z,1.83
2018-12-22T05:08:40.518Z,1.83
2018-12-22T05:13:33.900Z,1.50
2018-12-22T05:18:27.279Z,1.37
2018-12-22T05:23:20.642Z,1.40
2018-12-22T05:28:14.009Z,1.87
2018-12-22T05:33:07.393Z,1.43
2018-12-22T05:38:00.767Z,1.30
2018-12-22T05:42:54.159Z,1.27
2018-12-22T05:47:47.536Z,1.70
2018-12-22T05:52:40.954Z,1.30
2018-12-22T05:57:34.363Z,1.30
2018-12-22T06:02:27.721Z,1.30
2018-12-22T06:07:21.085Z,1.30
2018-12-22T06:12:14.446Z,1.40
2018-12-22T06:17:07.841Z,1.30
2018-12-22T06:22:01.232Z,1.60
2018-12-22T06:26:54.609Z,2.03
2018-12-22T06:31:47.974Z,1.47
2018-12-22T06:36:41.360Z,1.17
2018-12-22T06:41:34.754Z,1.10
2018-12-22T06:46:28.104Z,1.33
2018-12-22T06:51:21.517Z,1.30
2018-12-22T06:56:14.902Z,1.60
2018-12-22T07:01:08.250Z,1.12
2018-12-22T07:06:01.672Z,0.97
2018-12-22T07:10:55.022Z,1.20
2018-12-22T07:15:48.400Z,1.20
2018-12-22T07:20:41.795Z,1.40
2018-12-22T07:25:35.180Z,1.40
2018-12-22T07:30:28.536Z,1.20
2018-12-22T07:35:21.920Z,1.60
2018-12-22T07:40:15.289Z,1.17
2018-12-22T07:45:08.678Z,1.20
2018-12-22T07:50:02.075Z,1.13
2018-12-22T07:54:55.483Z,1.07
2018-12-22T07:59:48.834Z,1.37
2018-12-22T08:04:42.199Z,1.10
2018-12-22T08:09:35.643Z,1.30
2018-12-22T08:14:29.050Z,1.20
2018-12-22T08:19:22.455Z,1.10
2018-12-22T08:24:15.860Z,1.50
2018-12-22T08:29:09.241Z,1.42
2018-12-22T08:34:02.956Z,1.50
2018-12-22T08:38:56.325Z,1.00
2018-12-22T08:43:49.705Z,0.90
2018-12-22T08:48:43.080Z,1.10
2018-12-22T08:53:36.461Z,1.00
2018-12-22T08:58:29.843Z,1.10
2018-12-22T09:03:23.240Z,1.10
2018-12-22T09:08:16.640Z,1.13
2018-12-22T09:13:10.006Z,1.03
2018-12-22T09:18:03.568Z,1.10
2018-12-22T09:22:57.002Z,0.97
2018-12-22T09:27:50.395Z,1.30
2018-12-22T09:32:43.769Z,1.00
2018-12-22T09:37:37.179Z,1.10
2018-12-22T09:42:30.572Z,1.10
2018-12-22T09:47:23.957Z,0.97
2018-12-22T09:52:17.416Z,1.20
2018-12-22T09:57:10.834Z,1.20
2018-12-22T10:02:04.259Z,1.50
2018-12-22T10:06:57.653Z,1.33
2018-12-22T10:11:51.035Z,1.13
2018-12-22T10:16:44.437Z,0.90
2018-12-22T10:21:37.830Z,1.47
2018-12-22T10:26:50.013Z,1.20
2018-12-22T10:31:43.612Z,1.33
2018-12-22T10:36:37.216Z,1.07
2018-12-22T10:41:30.591Z,1.10
2018-12-22T10:46:24.437Z,1.30
2018-12-22T10:51:24.252Z,1.30
2018-12-22T10:56:11.299Z,1.77
2018-12-22T11:01:04.682Z,1.27
2018-12-22T11:06:10.995Z,1.40
2018-12-22T11:11:04.425Z,1.30
2018-12-22T11:15:57.804Z,1.27
2018-12-22T11:21:06.121Z,1.30
2018-12-22T11:26:00.401Z,1.20
2018-12-22T11:30:54.012Z,1.00
2018-12-22T11:35:47.389Z,1.10
2018-12-22T11:46:47.467Z,1.17
2018-12-22T11:51:40.826Z,1.23
2018-12-22T11:56:34.235Z,1.30
2018-12-22T12:01:27.601Z,1.53
2018-12-22T12:06:44.376Z,1.33
2018-12-22T12:11:37.806Z,1.40
2018-12-22T12:16:50.629Z,1.50
2018-12-22T12:21:44.067Z,1.97
2018-12-22T12:26:37.486Z,1.57
2018-12-22T12:31:30.862Z,1.60
2018-12-22T12:36:24.273Z,1.17
2018-12-22T12:47:23.113Z,2.07
2018-12-22T12:52:16.508Z,1.43
2018-12-22T12:57:10.106Z,1.40
2018-12-22T13:02:04.954Z,1.70
2018-12-22T13:06:58.409Z,1.17
2018-12-22T13:11:52.488Z,1.23
2018-12-22T13:16:45.849Z,1.23
2018-12-22T13:27:45.018Z,1.30
2018-12-22T13:32:38.410Z,1.30
2018-12-22T13:37:31.811Z,1.63
2018-12-22T13:47:59.974Z,1.40
2018-12-22T13:52:52.980Z,2.03
2018-12-22T13:57:46.562Z,1.60
2018-12-22T14:02:40.387Z,1.70
2018-12-22T14:07:33.759Z,1.40
2018-12-22T14:12:27.214Z,1.57
2018-12-22T14:17:26.145Z,1.50
2018-12-22T14:22:19.616Z,1.83
2018-12-22T14:27:13.005Z,1.97
2018-12-22T14:32:06.389Z,1.37
2018-12-22T14:36:59.812Z,1.63
2018-12-22T14:41:53.511Z,1.60
2018-12-22T14:46:46.892Z,1.70
2018-12-22T14:51:41.072Z,1.57
2018-12-22T14:56:39.156Z,1.70
2018-12-22T15:01:41.344Z,1.63
2018-12-22T15:06:35.258Z,1.80
2018-12-22T15:11:28.812Z,2.00
2018-12-22T15:16:22.188Z,1.70
2018-12-22T15:21:15.923Z,2.37
2018-12-22T15:26:09.287Z,2.03
2018-12-22T15:31:02.977Z,1.53
2018-12-22T15:35:56.349Z,1.90
2018-12-22T15:40:50.054Z,1.77
2018-12-22T15:45:43.434Z,1.70
2018-12-22T15:50:37.644Z,2.17
2018-12-22T15:55:31.055Z,2.30
2018-12-22T16:00:24.462Z,1.60
2018-12-22T16:05:19.056Z,2.30
2018-12-22T16:10:13.163Z,2.00
2018-12-22T16:15:07.870Z,2.73
2018-12-22T16:20:01.374Z,2.20
2018-12-22T16:25:25.175Z,2.03
2018-12-22T16:41:39.570Z,1.90
2018-12-22T16:46:59.633Z,2.93
2018-12-22T16:51:53.428Z,2.17
2018-12-22T16:56:46.801Z,2.13
2018-12-22T17:01:58.296Z,2.50
2018-12-22T17:06:51.671Z,2.27
2018-12-22T17:11:45.349Z,2.17
2018-12-22T17:16:39.054Z,2.27
2018-12-22T17:21:35.505Z,2.30
2018-12-22T17:26:29.905Z,2.07
2018-12-22T17:31:23.475Z,1.73
2018-12-22T17:36:16.910Z,1.83
2018-12-22T17:41:10.532Z,2.40
2018-12-22T17:46:03.910Z,2.70
2018-12-22T17:50:57.604Z,2.03
2018-12-22T17:55:51.006Z,2.10
2018-12-22T18:00:44.422Z,2.40
2018-12-22T18:05:38.498Z,2.00
2018-12-22T18:10:32.040Z,1.80
2018-12-22T18:15:25.431Z,2.30
2018-12-22T18:20:18.847Z,2.70
2018-12-22T18:25:13.050Z,2.53
2018-12-22T18:30:07.627Z,2.27
2018-12-22T18:35:01.013Z,1.97
2018-12-22T18:39:54.422Z,2.40
2018-12-22T18:44:47.808Z,2.20
2018-12-22T18:49:41.226Z,2.50
2018-12-22T18:54:34.686Z,2.20
2018-12-22T18:59:28.190Z,2.07
2018-12-22T19:04:21.605Z,2.20
2018-12-22T19:09:18.405Z,2.27
2018-12-22T19:14:11.865Z,2.20
2018-12-22T19:19:05.280Z,2.63
2018-12-22T19:23:58.898Z,2.03
2018-12-22T19:28:52.401Z,2.50
2018-12-22T19:33:53.257Z,2.23
2018-12-22T19:38:39.510Z,2.70
2018-12-22T19:43:32.933Z,2.10
2018-12-22T19:48:26.425Z,2.17
2018-12-22T19:53:20.120Z,1.83
2018-12-22T19:58:30.773Z,3.03
2018-12-22T20:04:04.108Z,2.57
2018-12-22T20:19:44.338Z,2.70
2018-12-22T20:25:02.806Z,2.58
2018-12-22T20:30:11.997Z,2.60
2018-12-22T20:35:05.434Z,2.30
2018-12-22T20:39:58.870Z,2.63
2018-12-22T20:44:52.348Z,2.47
2018-12-22T20:50:09.545Z,2.23
2018-12-22T20:55:09.510Z,2.53
2018-12-22T21:00:02.974Z,2.47
2018-12-22T21:04:56.408Z,3.00
2018-12-22T21:09:49.836Z,2.60
2018-12-22T21:14:43.383Z,2.33
2018-12-22T21:19:36.932Z,2.07
2018-12-22T21:24:30.284Z,2.10
2018-12-22T21:29:23.709Z,2.20
2018-12-22T21:34:17.093Z,2.60
2018-12-22T21:39:10.474Z,2.27
2018-12-22T21:44:03.849Z,2.30
2018-12-22T21:48:57.246Z,3.10
2018-12-22T21:53:50.714Z,2.57
2018-12-22T21:58:44.104Z,2.30
2018-12-22T22:03:37.616Z,3.20
2018-12-22T22:08:30.994Z,2.53
2018-12-22T22:13:24.594Z,2.20
2018-12-22T22:18:18.020Z,2.40
2018-12-22T22:23:18.892Z,3.07
2018-12-22T22:28:05.038Z,2.67
2018-12-22T22:32:58.674Z,2.30
2018-12-22T22:37:52.070Z,2.63
2018-12-22T22:42:45.714Z,2.60
2018-12-22T22:47:39.147Z,1.90
2018-12-22T22:52:32.800Z,2.50
2018-12-22T22:57:26.176Z,2.10
2018-12-22T23:02:19.916Z,2.57
2018-12-22T23:07:13.350Z,2.57
2018-12-22T23:12:06.743Z,2.00
2018-12-22T23:17:00.344Z,3.30
2018-12-22T23:21:54.004Z,2.20
2018-12-22T23:26:47.385Z,2.07
2018-12-22T23:31:41.044Z,2.40
2018-12-22T23:36:34.425Z,2.37
2018-12-22T23:41:28.182Z,2.23
2018-12-22T23:46:21.568Z,2.80
2018-12-22T23:51:15.168Z,1.90
2018-12-22T23:56:08.605Z,2.30
